レゾリュート の空港の天気 - METARとTAF

レゾリュート空港 ( CYRB / YRB ) - カナダ ヌナブト準州レゾリュート
飛行場実況気象(Metar)
観測時間10/16 02:00 CDT (10/16 07:00 UTC)
風向・風速西 8m/s
視程4850m
天気現象弱い雪
全天を覆う雲 雲底高度 370m
気温-7℃
湿度93%
気圧1018.9hPa
METARCYRB 160700Z 26015KT 3SM -SN OVC012 M07/M08 A3006 RMK SC8 SLP189
過去の天気等 Google飛行場航空写真 Wunderground天気予報

過去48時間のMETAR

飛行場予報(TAF)
発表時間: 10/16 01:54 CDT (10/16 06:54 UTC)
予報対象時間: 16日1時 CDT ~ 17日1時 CDT
風向・風速西南西 10m/s
視程4830m
天気現象弱い雪
全天を覆う雲 雲底高度 370m
16日1時 CDT ~ 16日13時 CDT に一時的に
視程1210m
天気現象弱い雪 高い地吹雪
全天を覆う雲 鉛直視程 240m
16日13時 CDT から
風向・風速南西 8m/s 瞬間風速 13m/s
視程4830m
天気現象弱い雪
全天を覆う雲 雲底高度 760m
16日13時 CDT ~ 17日1時 CDT に一時的に
視程8850m
天気現象弱い雪 高い地吹雪
全天を覆う雲 鉛直視程 370m
TAF AMD CYRB 160654Z 1606/1706 25020KT 3SM -SN OVC012
TEMPO 1606/1618 3/4SM -SN BLSN VV008
FM161800 23015G25KT 3SM -SN OVC025
TEMPO 1618/1706 11/2SM -SN BLSN VV012 RMK NXT FCST BY 161200Z